Deutsche Windsurfing Vereinigung e.V.

Adress :
Stad :
Postnummer :
Land : Germany
Web : www.dwsv.net
E-post : info@dwsv.net
Mobiltelefon :
Boat Classes : iQFOiL Junior, Raceboard, Windsurfer LT, Open Windfoil Youth, Speed Windsurfing, iQFOiL Youth, iQFOiL, TECHNO 293
Datum Event Båtklass Land Factor No. of Races
2021-04-19 - 2021-04-25 Offenes Traininglager, Kiel Techno Wind Foil GER 0,00 0
2021-04-19 - 2021-04-25 Offenes Trainingslager, Kiel iQFoil GER 0,00 0
2021-05-01 - 2021-05-02 ABGESAGT - 46. Havel-Cup Techno 293 GER 1,00 0
2021-05-01 - 2021-05-02 ABGESAGT - Bayern-Pokal 2021 Raceboard GER 1,25 0
2021-05-01 - 2021-05-02 ABGESAGT - 46. Havel-Cup 2021 Raceboard GER 1,25 0
2021-05-01 - 2021-05-02 ABGESAGT - Bayern-Pokal Techno 293 GER 1,00 0
2021-05-08 - 2021-05-09 ABGESAGT: Hamburger Meisterschaft 2020 Raceboard GER 1,20 0
2021-05-08 - 2021-05-09 ABGESAGT - Pader-Cup 2021 Raceboard GER 1,25 0
2021-05-08 - 2021-05-09 ABGESAGT - Pader-Cup Techno 293 GER 1,00 0
2021-05-15 - 2021-05-16 ABGESAGT - Rheinland-Cup 2021 Raceboard GER 1,32 0
2021-05-21 - 2021-05-22 ABGESAGT - Offenes Traininglager, Möhnesee Techno Wind Foil GER 0,00 0
2021-05-23 - 2021-05-24 Techno Wind Foil Cup Techno Wind Foil GER 1,20 0
2021-05-24 - 2021-05-28 ABGESAGT - Jugend Trainingscamp Süd iQFoil GER 0,00 0
2021-05-24 - 2021-05-28 ABGESAGT - Jugend Trainingscamp Süd Techno Wind Foil GER 0,00 0
2021-05-25 - 2021-05-28 ABGESAGT - Offenes Traininglager Techno Wind Foil GER 0,00 0
2021-05-28 Fortbildung Windfoil Tegernsee iQFoil GER 0,00 0
2021-05-28 Fortbildung Windfoil Tegernsee Techno Wind Foil GER 0,00 0
2021-05-29 - 2021-05-30 TenderCup 2021 | LM Raceboard TECHNO 293 GER 1,00
2021-05-29 - 2021-05-30 Tegernsee Foil Event Techno Wind Foil GER 1,20 0
2021-05-29 - 2021-05-30 Tegernsee Foil Event iQFoil GER 1,20 0
2021-05-29 - 2021-05-30 TenderCup 2021 | LM Raceboard Raceboard GER 1,25
2021-06-02 - 2021-06-06 Medemblik Regatta iQFoil GER 0,00 0
2021-06-05 - 2021-06-06 Techno Wind Foil Cup, Dümmer See Techno Wind Foil GER 1,20 0
2021-06-12 - 2021-06-13 Strander Surf Cup 2021 Raceboard GER 1,25 7
2021-06-19 - 2021-06-20 Auesee-Cup Raceboard GER 1,25 6
2021-06-19 - 2021-06-20 Auesee-Cup TECHNO 293 GER 1,00 6
2021-06-28 - 2021-07-02 Offenes Trainingslager, Usedom Techno Wind Foil GER 0,00 0
2021-06-28 - 2021-07-02 Offenes Trainingslager, Usedom iQFoil GER 0,00 0
2021-07-02 - 2021-07-04 Bayerische Jugendmeisterschaft TECHNO 293 GER 1,20 6
2021-07-03 - 2021-07-04 Chiemsee-Cup Techno Wind Foil GER 0,00 0
2021-07-03 - 2021-07-04 Chiemsee Cup Windsurfer LT GER 5
2021-07-03 - 2021-07-07 Raceboard European Championships 2021 Raceboard POR 1,50 0
2021-07-03 - 2021-07-04 Chiemsee Cup TECHNO 293 GER 5
2021-07-03 - 2021-07-04 Chiemsee Cup Raceboard GER 5
2021-07-03 - 2021-07-04 Techno Wind Foil Cup Techno Wind Foil GER 1,20 0
2021-07-10 - 2021-07-11 ABGESAGT - Immenstaader Surf-Marathon Raceboard GER 1,25 0
2021-07-10 - 2021-07-11 ABGESAGT - Immenstaader Windsurfingmarathon iQFoil GER 0,00 0
2021-07-10 - 2021-07-11 Offenes Trainingslager Techno Wind Foil GER 0,00 0
2021-07-10 - 2021-07-11 ABGESAGT - Immenstaader Windsurfingmarathon Techno 293 GER 1,00 0
2021-07-17 - 2021-07-18 DWC Sankt Peter-Ording Techno Wind Foil GER 0,00 0
2021-07-17 - 2021-07-18 DWC Sankt Peter-Ording iQFoil GER 0,00 0
2021-07-17 - 2021-07-18 20. Saar-Surf Cup TECHNO 293 GER 1,20 7
2021-07-17 - 2021-07-18 20. Saar-Surf Cup Raceboard GER 1,32 7
2021-07-22 - 2021-07-23 DWC Sylt Techno Wind Foil GER 0,00 0
2021-07-22 - 2021-07-25 DWC Sylt iQFoil GER 0,00 0
2021-07-27 - 2021-08-01 Kids Camp Grönwohld Techno Wind Foil GER 0,00 0
2021-08-02 - 2021-08-06 Offenes Trainingslager iQFoil GER 0,00 0
2021-08-07 - 2021-08-08 Vinc Cup, Schönberg Techno Wind Foil GER 0,00 0
2021-08-10 - 2021-08-15 Techno Wind Foil International Championship, Bodrum Techno Wind Foil TUR 0,00 0
2021-08-17 - 2021-08-21 Raceboard World Championships 2021 - Men Raceboard LAT 1,60 14
2021-08-17 - 2021-08-21 Raceboard World Championships 2021 - Women Raceboard LAT 1,60 12
2021-08-17 - 2021-08-22 iQFoil World Championships 2021 iQFoil - Women SUI 1,60 17
2021-08-17 - 2021-08-22 iQFoil World Championships 2021 iQFoil - Men SUI 1,60 13
2021-08-21 - 2021-08-28 T293 & Tplus European Championships 2021 Techno 293 EST 1,40 0
2021-08-28 - 2021-08-29 DWC Zinnowitz iQFoil GER 1,20 0
2021-08-28 - 2021-08-29 DWC Zinnowitz Techno Wind Foil GER 1,20 0
2021-09-02 - 2021-09-05 Intern. Alpen-Cup Wallersee iQFoil GER 1,20 0
2021-09-02 - 2021-09-05 Intern. Alpen-Cup, Wallersee Techno Wind Foil AUT 1,20 0
2021-09-02 - 2021-09-05 DWC Kühlungsborn iQFoil GER 0,00 0
2021-09-02 - 2021-09-05 DWC Kühlungsborn Techno Wind Foil GER 1,20 0
2021-09-03 - 2021-09-05 German Masters 2021 Raceboard Raceboard GER 1,32 6
2021-09-03 - 2021-09-05 Internationale Deutsche Meisterschaft 2021 Raceboard Raceboard GER 1,40 6
2021-09-09 - 2021-09-12 Kieler Woche 2021 iQFoil (Men) GER 1,30 16
2021-09-09 - 2021-09-12 Kieler Woche 2021 iQFoil (Women) GER 1,30 16
2021-09-10 - 2021-09-12 DWC Kellenhusen iQFoil GER 1,20 0
2021-09-11 - 2021-09-12 Offenes Trainingslager, Kiel iQFoil GER 0,00 0
2021-09-11 - 2021-09-12 Offenes Trainingslager, Kiel Techno Wind Foil GER 0,00 0
2021-09-11 - 2021-09-12 Bärencup 2021 TECHNO 293 overall GER 1,20 8
2021-09-11 - 2021-09-12 Bärencup 2021 Raceboard overall GER 1,25 8
2021-09-18 - 2021-09-19 Auesee Foil Cup Techno Wind Foil GER 1,20 0
2021-09-18 - 2021-09-19 Auesee Foil Cup iQFoil GER 1,20 0
2021-09-23 - 2021-09-26 Internationale Deutsche Meisterschaft 49er, 49erFx, iQFoil m/w iQFoil 95 weiblich GER 1,40 7
2021-09-23 - 2021-09-26 Internationale Deutsche Meisterschaft 49er, 49erFx, iQFoil m/w iQFoil 95 männlich GER 1,40 7
2021-09-24 - 2021-09-26 Surf-Bundesliga-Finale / Deutsche Jugendmeisterschaft Techno 293 Raceboard GER 1,32 9
2021-09-24 - 2021-09-26 Surf-Bundesliga-Finale / Deutsche Jugendmeisterschaft Techno 293 TECHNO 293 GER 1,40 9
2021-10-01 Bavarian Masters Raceboard GER 1,20 3
2021-10-01 - 2021-10-03 DWC Borkum iQFoil GER 0,00 0
2021-10-01 - 2021-10-03 Int. Deutsche Bestenermittlung Windsurfer Windsurfer LT GER 1,10 5
2021-10-02 - 2021-10-03 Chiemsee Insel-Marathon Raceboard GER 1,20 2
2021-10-03 - 2021-10-09 Trofeo Princesa Sofia Palma iQFoil ESP 0,00 0
2021-10-09 - 2021-10-12 Offenes Trainingslager iQFoil GER 0,00 0
2021-10-10 - 2021-10-14 Raceboard Masters World Championships 2021 Raceboard ESP 1,30 0
2021-10-16 - 2021-10-17 Techno Wind Foil Cup Finale, Surendorf Techno Wind Foil GER 1,40 0
2021-10-22 - 2021-10-28 iQFoil European Championships 2021 iQFoil - Men FRA 1,50 9
2021-10-22 - 2021-10-28 iQFoil European Championships 2021 iQFoil - Women FRA 1,50 15
2021-10-23 - 2021-10-30 T293 World Championships 2021 Techno 293 ITA 1,40 0
Board members
Vorsitzender & Abteilungsleiter Longboard : Michaelis Thomas
Stellvertretender Vorsitzender & Abteilungsleiter Olympische Klasse : Götzke Michael
Abteilungsleiter Jugend : Poggemann Thomas
Abteilungsleiter Speed : Naumann Michael
Schatzmeister : Kleine Thomas
© 2013 ST Software s.r.o. (Version: 1.0.974.0)